sensor_id;sensor_type;location;lat;lon;timestamp;temperature;humidity
10386;DHT22;34307;51.332;12.334;2022-10-15T05:22:38;13.60;99.90
10386;DHT22;34307;51.332;12.334;2022-10-15T05:25:08;13.60;99.90
10386;DHT22;34307;51.332;12.334;2022-10-15T05:27:36;13.60;99.90
10386;DHT22;34307;51.332;12.334;2022-10-15T05:30:05;13.60;99.90
10386;DHT22;34307;51.332;12.334;2022-10-15T05:32:33;13.60;99.90
10386;DHT22;34307;51.332;12.334;2022-10-15T05:35:01;13.60;99.90
10386;DHT22;34307;51.332;12.334;2022-10-15T05:37:29;13.70;99.90
10386;DHT22;34307;51.332;12.334;2022-10-15T05:39:59;13.70;99.90
10386;DHT22;34307;51.332;12.334;2022-10-15T05:42:27;13.70;99.90
10386;DHT22;34307;51.332;12.334;2022-10-15T05:44:55;13.70;99.90
10386;DHT22;34307;51.332;12.334;2022-10-15T05:47:23;13.80;99.90
10386;DHT22;34307;51.332;12.334;2022-10-15T05:49:51;13.80;99.90
10386;DHT22;34307;51.332;12.334;2022-10-15T05:52:20;13.80;99.90
10386;DHT22;34307;51.332;12.334;2022-10-15T05:54:49;13.80;99.90
10386;DHT22;34307;51.332;12.334;2022-10-15T05:57:18;13.90;99.90
10386;DHT22;34307;51.332;12.334;2022-10-15T10:13:55;17.40;99.90
10386;DHT22;34307;51.332;12.334;2022-10-15T10:16:25;17.40;99.90
10386;DHT22;34307;51.332;12.334;2022-10-15T10:19:04;17.50;99.90
10386;DHT22;34307;51.332;12.334;2022-10-15T10:21:34;17.60;99.90
10386;DHT22;34307;51.332;12.334;2022-10-15T10:24:25;17.60;99.90
10386;DHT22;34307;51.332;12.334;2022-10-15T10:34:14;17.70;99.90
10386;DHT22;34307;51.332;12.334;2022-10-15T10:36:47;17.80;99.90
10386;DHT22;34307;51.332;12.334;2022-10-15T10:39:23;17.80;99.90
10386;DHT22;34307;51.332;12.334;2022-10-15T10:41:53;17.80;99.90
10386;DHT22;34307;51.332;12.334;2022-10-15T10:44:27;17.90;99.90
10386;DHT22;34307;51.332;12.334;2022-10-15T10:47:16;18.20;99.90
10386;DHT22;34307;51.332;12.334;2022-10-15T10:49:48;18.30;99.90
10386;DHT22;34307;51.332;12.334;2022-10-15T10:52:21;18.50;99.90
10386;DHT22;34307;51.332;12.334;2022-10-15T10:55:03;18.40;99.90
10386;DHT22;34307;51.332;12.334;2022-10-15T10:57:38;18.50;99.90
10386;DHT22;34307;51.332;12.334;2022-10-15T11:00:13;18.40;99.90
10386;DHT22;34307;51.332;12.334;2022-10-15T11:02:42;18.40;99.90
10386;DHT22;34307;51.332;12.334;2022-10-15T11:05:12;18.70;99.90
10386;DHT22;34307;51.332;12.334;2022-10-15T11:07:45;18.60;99.90
10386;DHT22;34307;51.332;12.334;2022-10-15T11:10:21;18.40;99.90
10386;DHT22;34307;51.332;12.334;2022-10-15T11:13:05;18.40;99.90
10386;DHT22;34307;51.332;12.334;2022-10-15T11:15:46;18.50;99.90
10386;DHT22;34307;51.332;12.334;2022-10-15T11:18:30;18.50;99.90
10386;DHT22;34307;51.332;12.334;2022-10-15T11:21:09;18.50;99.90
10386;DHT22;34307;51.332;12.334;2022-10-15T11:23:51;18.50;99.90
10386;DHT22;34307;51.332;12.334;2022-10-15T11:26:32;18.60;99.90
10386;DHT22;34307;51.332;12.334;2022-10-15T11:29:22;18.50;99.90
10386;DHT22;34307;51.332;12.334;2022-10-15T11:31:57;18.50;99.90
10386;DHT22;34307;51.332;12.334;2022-10-15T11:34:54;18.60;99.90
10386;DHT22;34307;51.332;12.334;2022-10-15T11:37:35;18.40;99.90
10386;DHT22;34307;51.332;12.334;2022-10-15T11:47:27;18.10;99.90
10386;DHT22;34307;51.332;12.334;2022-10-15T11:50:16;18.20;99.90
10386;DHT22;34307;51.332;12.334;2022-10-15T12:00:03;18.40;99.90
10386;DHT22;34307;51.332;12.334;2022-10-15T12:02:34;18.40;99.90
10386;DHT22;34307;51.332;12.334;2022-10-15T12:05:06;18.60;99.90
10386;DHT22;34307;51.332;12.334;2022-10-15T12:07:39;18.70;99.90
10386;DHT22;34307;51.332;12.334;2022-10-15T12:10:29;18.80;99.90
10386;DHT22;34307;51.332;12.334;2022-10-15T12:13:03;18.70;99.90
10386;DHT22;34307;51.332;12.334;2022-10-15T12:15:38;18.80;99.90
10386;DHT22;34307;51.332;12.334;2022-10-15T12:18:16;18.70;99.90
10386;DHT22;34307;51.332;12.334;2022-10-15T12:20:47;18.60;99.90
10386;DHT22;34307;51.332;12.334;2022-10-15T12:23:23;18.80;99.90
10386;DHT22;34307;51.332;12.334;2022-10-15T12:25:51;19.20;99.90
10386;DHT22;34307;51.332;12.334;2022-10-15T12:28:21;19.20;99.90
10386;DHT22;34307;51.332;12.334;2022-10-15T12:30:57;19.20;99.90
10386;DHT22;34307;51.332;12.334;2022-10-15T12:33:32;19.60;99.90
10386;DHT22;34307;51.332;12.334;2022-10-15T12:36:02;20.10;99.90
10386;DHT22;34307;51.332;12.334;2022-10-15T12:38:36;19.70;99.90
10386;DHT22;34307;51.332;12.334;2022-10-15T12:41:07;19.30;99.90
10386;DHT22;34307;51.332;12.334;2022-10-15T12:43:39;19.20;99.90
10386;DHT22;34307;51.332;12.334;2022-10-15T12:46:10;19.30;99.90
10386;DHT22;34307;51.332;12.334;2022-10-15T12:48:40;19.10;99.90
10386;DHT22;34307;51.332;12.334;2022-10-15T12:51:36;19.00;99.90
10386;DHT22;34307;51.332;12.334;2022-10-15T12:54:32;19.30;99.90
10386;DHT22;34307;51.332;12.334;2022-10-15T12:57:01;19.60;99.90
10386;DHT22;34307;51.332;12.334;2022-10-15T12:59:53;19.50;99.90
10386;DHT22;34307;51.332;12.334;2022-10-15T13:02:36;19.20;99.90
10386;DHT22;34307;51.332;12.334;2022-10-15T13:05:06;19.20;99.90
10386;DHT22;34307;51.332;12.334;2022-10-15T13:15:02;19.20;99.90
10386;DHT22;34307;51.332;12.334;2022-10-15T13:17:32;19.60;99.90
10386;DHT22;34307;51.332;12.334;2022-10-15T13:20:07;19.90;99.90
10386;DHT22;34307;51.332;12.334;2022-10-15T13:22:50;20.60;99.90
10386;DHT22;34307;51.332;12.334;2022-10-15T13:25:32;21.10;94.50
10386;DHT22;34307;51.332;12.334;2022-10-15T13:38:05;19.50;99.90
10386;DHT22;34307;51.332;12.334;2022-10-15T13:40:33;19.40;99.90
10386;DHT22;34307;51.332;12.334;2022-10-15T13:50:27;19.40;99.90
10386;DHT22;34307;51.332;12.334;2022-10-15T13:52:58;19.60;99.90
10386;DHT22;34307;51.332;12.334;2022-10-15T13:55:29;19.70;99.90
10386;DHT22;34307;51.332;12.334;2022-10-15T14:06:30;19.50;99.90
10386;DHT22;34307;51.332;12.334;2022-10-15T14:09:00;19.50;99.90
10386;DHT22;34307;51.332;12.334;2022-10-15T14:19:09;19.30;99.90
10386;DHT22;34307;51.332;12.334;2022-10-15T16:19:58;17.70;99.90
10386;DHT22;34307;51.332;12.334;2022-10-15T16:22:26;17.60;99.90
10386;DHT22;34307;51.332;12.334;2022-10-15T16:24:56;17.70;99.90
10386;DHT22;34307;51.332;12.334;2022-10-15T16:27:24;17.70;99.90
10386;DHT22;34307;51.332;12.334;2022-10-15T16:29:53;17.60;99.90
10386;DHT22;34307;51.332;12.334;2022-10-15T16:32:21;17.70;99.90
10386;DHT22;34307;51.332;12.334;2022-10-15T16:34:49;17.70;99.90
10386;DHT22;34307;51.332;12.334;2022-10-15T16:37:18;17.70;99.90
10386;DHT22;34307;51.332;12.334;2022-10-15T16:39:46;17.70;99.90
10386;DHT22;34307;51.332;12.334;2022-10-15T16:42:14;17.70;99.90
10386;DHT22;34307;51.332;12.334;2022-10-15T16:44:43;17.80;99.90
10386;DHT22;34307;51.332;12.334;2022-10-15T16:47:12;17.80;99.90
10386;DHT22;34307;51.332;12.334;2022-10-15T16:49:40;17.70;99.90
10386;DHT22;34307;51.332;12.334;2022-10-15T16:52:08;17.70;99.90
10386;DHT22;34307;51.332;12.334;2022-10-15T16:54:38;17.70;99.90
10386;DHT22;34307;51.332;12.334;2022-10-15T16:57:06;17.70;99.90
10386;DHT22;34307;51.332;12.334;2022-10-15T16:59:34;17.70;99.90
10386;DHT22;34307;51.332;12.334;2022-10-15T17:02:02;17.70;99.90
10386;DHT22;34307;51.332;12.334;2022-10-15T17:04:30;17.80;99.90
10386;DHT22;34307;51.332;12.334;2022-10-15T17:06:58;17.80;99.90
10386;DHT22;34307;51.332;12.334;2022-10-15T17:09:26;17.80;99.90
10386;DHT22;34307;51.332;12.334;2022-10-15T17:11:56;17.70;99.90
10386;DHT22;34307;51.332;12.334;2022-10-15T17:14:23;17.70;99.90
10386;DHT22;34307;51.332;12.334;2022-10-15T17:16:52;17.60;99.90
10386;DHT22;34307;51.332;12.334;2022-10-15T17:19:21;17.60;99.90
10386;DHT22;34307;51.332;12.334;2022-10-15T17:21:56;17.50;99.90
10386;DHT22;34307;51.332;12.334;2022-10-15T17:24:24;17.40;99.90
10386;DHT22;34307;51.332;12.334;2022-10-15T17:26:52;17.40;99.90
10386;DHT22;34307;51.332;12.334;2022-10-15T17:29:21;17.30;99.90
10386;DHT22;34307;51.332;12.334;2022-10-15T17:31:56;17.30;99.90
10386;DHT22;34307;51.332;12.334;2022-10-15T17:34:24;17.30;99.90
10386;DHT22;34307;51.332;12.334;2022-10-15T17:36:53;17.30;99.90
10386;DHT22;34307;51.332;12.334;2022-10-15T17:39:22;17.30;99.90
10386;DHT22;34307;51.332;12.334;2022-10-15T17:41:50;17.30;99.90
10386;DHT22;34307;51.332;12.334;2022-10-15T17:44:20;17.30;99.90
